sensor_id;sensor_type;location;lat;lon;timestamp;P1;durP1;ratioP1;P2;durP2;ratioP2
13801;SDS011;6972;51.518;6.918;2022-10-31T00:02:08;17.90;;;9.88;;
13801;SDS011;6972;51.518;6.918;2022-10-31T00:04:33;20.73;;;10.05;;
13801;SDS011;6972;51.518;6.918;2022-10-31T00:06:59;20.38;;;8.98;;
13801;SDS011;6972;51.518;6.918;2022-10-31T00:09:25;22.73;;;9.13;;
13801;SDS011;6972;51.518;6.918;2022-10-31T00:11:51;21.33;;;9.18;;
13801;SDS011;6972;51.518;6.918;2022-10-31T00:14:17;13.75;;;8.93;;
13801;SDS011;6972;51.518;6.918;2022-10-31T00:16:43;18.45;;;9.48;;
13801;SDS011;6972;51.518;6.918;2022-10-31T00:19:09;27.10;;;9.68;;
13801;SDS011;6972;51.518;6.918;2022-10-31T00:21:35;26.15;;;10.02;;
13801;SDS011;6972;51.518;6.918;2022-10-31T00:24:01;18.02;;;8.75;;
13801;SDS011;6972;51.518;6.918;2022-10-31T00:26:28;15.10;;;8.85;;
13801;SDS011;6972;51.518;6.918;2022-10-31T00:28:54;16.30;;;9.15;;
13801;SDS011;6972;51.518;6.918;2022-10-31T00:31:20;17.95;;;9.23;;
13801;SDS011;6972;51.518;6.918;2022-10-31T00:33:46;14.13;;;8.20;;
13801;SDS011;6972;51.518;6.918;2022-10-31T00:36:17;18.50;;;8.88;;
13801;SDS011;6972;51.518;6.918;2022-10-31T00:38:43;14.25;;;8.57;;
13801;SDS011;6972;51.518;6.918;2022-10-31T00:41:11;15.77;;;9.00;;
13801;SDS011;6972;51.518;6.918;2022-10-31T00:43:37;17.55;;;9.18;;
13801;SDS011;6972;51.518;6.918;2022-10-31T00:46:03;18.92;;;9.82;;
13801;SDS011;6972;51.518;6.918;2022-10-31T00:48:29;17.20;;;9.07;;
13801;SDS011;6972;51.518;6.918;2022-10-31T00:50:58;17.27;;;8.75;;
13801;SDS011;6972;51.518;6.918;2022-10-31T00:53:23;20.45;;;8.80;;
13801;SDS011;6972;51.518;6.918;2022-10-31T00:55:49;16.27;;;8.23;;
13801;SDS011;6972;51.518;6.918;2022-10-31T00:58:15;14.80;;;8.77;;
13801;SDS011;6972;51.518;6.918;2022-10-31T01:00:41;20.15;;;8.50;;
13801;SDS011;6972;51.518;6.918;2022-10-31T01:03:07;16.33;;;9.50;;
13801;SDS011;6972;51.518;6.918;2022-10-31T01:05:33;16.35;;;8.88;;
13801;SDS011;6972;51.518;6.918;2022-10-31T01:07:59;19.10;;;9.00;;
13801;SDS011;6972;51.518;6.918;2022-10-31T01:10:25;15.65;;;9.30;;
13801;SDS011;6972;51.518;6.918;2022-10-31T01:12:51;23.45;;;9.60;;
13801;SDS011;6972;51.518;6.918;2022-10-31T01:15:21;15.50;;;8.85;;
13801;SDS011;6972;51.518;6.918;2022-10-31T01:17:47;18.25;;;8.70;;
13801;SDS011;6972;51.518;6.918;2022-10-31T01:20:14;17.52;;;8.75;;
13801;SDS011;6972;51.518;6.918;2022-10-31T01:22:40;21.55;;;9.10;;
13801;SDS011;6972;51.518;6.918;2022-10-31T01:25:08;19.52;;;8.90;;
13801;SDS011;6972;51.518;6.918;2022-10-31T01:27:34;21.67;;;9.43;;
13801;SDS011;6972;51.518;6.918;2022-10-31T01:30:00;15.10;;;8.13;;
13801;SDS011;6972;51.518;6.918;2022-10-31T01:32:29;17.00;;;9.07;;
13801;SDS011;6972;51.518;6.918;2022-10-31T01:34:55;17.00;;;8.98;;
13801;SDS011;6972;51.518;6.918;2022-10-31T01:37:21;16.92;;;9.18;;
13801;SDS011;6972;51.518;6.918;2022-10-31T01:39:50;23.83;;;9.32;;
13801;SDS011;6972;51.518;6.918;2022-10-31T01:42:17;13.57;;;8.43;;
13801;SDS011;6972;51.518;6.918;2022-10-31T01:44:49;16.17;;;8.27;;
13801;SDS011;6972;51.518;6.918;2022-10-31T01:47:18;14.70;;;8.90;;
13801;SDS011;6972;51.518;6.918;2022-10-31T01:49:51;16.30;;;9.25;;
13801;SDS011;6972;51.518;6.918;2022-10-31T01:55:21;16.17;;;9.13;;
13801;SDS011;6972;51.518;6.918;2022-10-31T01:57:53;19.52;;;8.98;;
13801;SDS011;6972;51.518;6.918;2022-10-31T02:00:23;17.83;;;8.70;;
13801;SDS011;6972;51.518;6.918;2022-10-31T02:02:49;17.65;;;9.18;;
13801;SDS011;6972;51.518;6.918;2022-10-31T02:05:17;16.88;;;9.15;;
13801;SDS011;6972;51.518;6.918;2022-10-31T02:10:38;15.23;;;9.07;;
13801;SDS011;6972;51.518;6.918;2022-10-31T02:13:07;19.92;;;8.77;;
13801;SDS011;6972;51.518;6.918;2022-10-31T02:15:33;22.60;;;9.55;;
13801;SDS011;6972;51.518;6.918;2022-10-31T02:18:01;20.35;;;9.68;;
13801;SDS011;6972;51.518;6.918;2022-10-31T02:20:53;15.75;;;8.65;;
13801;SDS011;6972;51.518;6.918;2022-10-31T02:33:57;19.05;;;9.90;;
13801;SDS011;6972;51.518;6.918;2022-10-31T02:36:29;21.67;;;10.18;;
13801;SDS011;6972;51.518;6.918;2022-10-31T02:41:46;26.60;;;9.57;;
13801;SDS011;6972;51.518;6.918;2022-10-31T02:46:52;18.63;;;9.02;;
13801;SDS011;6972;51.518;6.918;2022-10-31T02:51:50;17.70;;;8.80;;
13801;SDS011;6972;51.518;6.918;2022-10-31T02:54:21;21.48;;;10.32;;
13801;SDS011;6972;51.518;6.918;2022-10-31T02:56:50;24.20;;;10.27;;
13801;SDS011;6972;51.518;6.918;2022-10-31T02:59:19;18.17;;;9.68;;
13801;SDS011;6972;51.518;6.918;2022-10-31T03:10:03;20.27;;;9.82;;
13801;SDS011;6972;51.518;6.918;2022-10-31T03:15:30;19.35;;;9.30;;
13801;SDS011;6972;51.518;6.918;2022-10-31T03:18:08;19.27;;;10.50;;
13801;SDS011;6972;51.518;6.918;2022-10-31T03:20:40;16.52;;;9.25;;
13801;SDS011;6972;51.518;6.918;2022-10-31T03:23:26;17.13;;;9.30;;
13801;SDS011;6972;51.518;6.918;2022-10-31T03:25:55;16.77;;;9.30;;
13801;SDS011;6972;51.518;6.918;2022-10-31T03:28:23;14.48;;;8.73;;
13801;SDS011;6972;51.518;6.918;2022-10-31T03:30:54;16.50;;;8.75;;
13801;SDS011;6972;51.518;6.918;2022-10-31T03:33:22;17.92;;;9.55;;
13801;SDS011;6972;51.518;6.918;2022-10-31T03:35:52;22.45;;;10.00;;
13801;SDS011;6972;51.518;6.918;2022-10-31T03:38:20;23.10;;;9.43;;
13801;SDS011;6972;51.518;6.918;2022-10-31T03:40:47;19.73;;;9.05;;
13801;SDS011;6972;51.518;6.918;2022-10-31T03:43:17;18.33;;;10.85;;
13801;SDS011;6972;51.518;6.918;2022-10-31T03:45:46;17.38;;;9.35;;
13801;SDS011;6972;51.518;6.918;2022-10-31T03:48:13;15.23;;;10.00;;
13801;SDS011;6972;51.518;6.918;2022-10-31T03:50:44;17.98;;;10.15;;
13801;SDS011;6972;51.518;6.918;2022-10-31T03:53:32;22.02;;;10.10;;
13801;SDS011;6972;51.518;6.918;2022-10-31T03:56:02;21.00;;;9.65;;
13801;SDS011;6972;51.518;6.918;2022-10-31T03:58:48;21.17;;;10.10;;
13801;SDS011;6972;51.518;6.918;2022-10-31T04:01:42;16.90;;;10.18;;
13801;SDS011;6972;51.518;6.918;2022-10-31T04:04:12;23.35;;;9.68;;
13801;SDS011;6972;51.518;6.918;2022-10-31T04:06:39;23.27;;;9.85;;
13801;SDS011;6972;51.518;6.918;2022-10-31T04:09:07;20.77;;;10.55;;
13801;SDS011;6972;51.518;6.918;2022-10-31T04:11:36;19.13;;;10.40;;
13801;SDS011;6972;51.518;6.918;2022-10-31T04:14:05;17.90;;;10.57;;
13801;SDS011;6972;51.518;6.918;2022-10-31T04:16:32;20.60;;;10.30;;
13801;SDS011;6972;51.518;6.918;2022-10-31T04:18:57;18.75;;;10.10;;
13801;SDS011;6972;51.518;6.918;2022-10-31T04:21:27;13.45;;;10.00;;
13801;SDS011;6972;51.518;6.918;2022-10-31T04:23:54;20.88;;;11.25;;
13801;SDS011;6972;51.518;6.918;2022-10-31T04:26:20;19.65;;;10.52;;
13801;SDS011;6972;51.518;6.918;2022-10-31T04:28:45;19.55;;;11.18;;
13801;SDS011;6972;51.518;6.918;2022-10-31T04:31:14;18.60;;;11.13;;
13801;SDS011;6972;51.518;6.918;2022-10-31T04:33:40;20.42;;;11.45;;
13801;SDS011;6972;51.518;6.918;2022-10-31T04:36:06;21.40;;;10.95;;
13801;SDS011;6972;51.518;6.918;2022-10-31T04:38:32;20.05;;;10.85;;
13801;SDS011;6972;51.518;6.918;2022-10-31T04:41:01;20.30;;;10.10;;
13801;SDS011;6972;51.518;6.918;2022-10-31T04:43:27;16.70;;;9.93;;
13801;SDS011;6972;51.518;6.918;2022-10-31T04:45:53;20.58;;;10.50;;
13801;SDS011;6972;51.518;6.918;2022-10-31T04:48:18;20.83;;;10.02;;
13801;SDS011;6972;51.518;6.918;2022-10-31T04:50:44;18.65;;;10.25;;
13801;SDS011;6972;51.518;6.918;2022-10-31T04:53:10;22.88;;;10.27;;
13801;SDS011;6972;51.518;6.918;2022-10-31T04:55:35;18.58;;;9.93;;
13801;SDS011;6972;51.518;6.918;2022-10-31T04:58:01;19.58;;;9.90;;
13801;SDS011;6972;51.518;6.918;2022-10-31T05:00:27;23.05;;;10.35;;
13801;SDS011;6972;51.518;6.918;2022-10-31T05:02:54;19.15;;;10.05;;
13801;SDS011;6972;51.518;6.918;2022-10-31T05:05:23;17.38;;;9.15;;
13801;SDS011;6972;51.518;6.918;2022-10-31T05:07:51;17.38;;;9.65;;
13801;SDS011;6972;51.518;6.918;2022-10-31T05:10:18;15.65;;;9.57;;
13801;SDS011;6972;51.518;6.918;2022-10-31T05:12:48;15.50;;;8.80;;
13801;SDS011;6972;51.518;6.918;2022-10-31T05:15:15;20.58;;;9.43;;
13801;SDS011;6972;51.518;6.918;2022-10-31T05:17:45;17.45;;;8.90;;
13801;SDS011;6972;51.518;6.918;2022-10-31T05:20:11;15.73;;;10.07;;
13801;SDS011;6972;51.518;6.918;2022-10-31T05:22:44;15.40;;;9.52;;
13801;SDS011;6972;51.518;6.918;2022-10-31T05:25:11;18.98;;;10.30;;
13801;SDS011;6972;51.518;6.918;2022-10-31T05:27:40;17.55;;;9.85;;
13801;SDS011;6972;51.518;6.918;2022-10-31T05:30:07;15.90;;;9.73;;
13801;SDS011;6972;51.518;6.918;2022-10-31T05:32:52;19.50;;;10.13;;
13801;SDS011;6972;51.518;6.918;2022-10-31T05:35:22;18.92;;;10.00;;
13801;SDS011;6972;51.518;6.918;2022-10-31T05:37:50;23.13;;;10.00;;
13801;SDS011;6972;51.518;6.918;2022-10-31T05:40:16;16.52;;;8.88;;
13801;SDS011;6972;51.518;6.918;2022-10-31T05:42:42;17.35;;;10.20;;
13801;SDS011;6972;51.518;6.918;2022-10-31T05:45:09;18.67;;;9.75;;
13801;SDS011;6972;51.518;6.918;2022-10-31T05:47:36;19.35;;;9.82;;
13801;SDS011;6972;51.518;6.918;2022-10-31T05:50:02;22.77;;;9.65;;
13801;SDS011;6972;51.518;6.918;2022-10-31T05:52:28;17.45;;;9.23;;
13801;SDS011;6972;51.518;6.918;2022-10-31T05:54:54;18.85;;;9.93;;
13801;SDS011;6972;51.518;6.918;2022-10-31T05:57:20;16.98;;;9.18;;
13801;SDS011;6972;51.518;6.918;2022-10-31T05:59:46;16.52;;;9.55;;
13801;SDS011;6972;51.518;6.918;2022-10-31T06:02:12;20.02;;;9.05;;
13801;SDS011;6972;51.518;6.918;2022-10-31T06:04:39;15.82;;;8.52;;
13801;SDS011;6972;51.518;6.918;2022-10-31T06:07:05;16.30;;;8.55;;
13801;SDS011;6972;51.518;6.918;2022-10-31T06:09:31;23.00;;;9.75;;
13801;SDS011;6972;51.518;6.918;2022-10-31T06:11:56;18.70;;;9.55;;
13801;SDS011;6972;51.518;6.918;2022-10-31T06:14:22;18.92;;;10.10;;
13801;SDS011;6972;51.518;6.918;2022-10-31T06:16:48;18.95;;;10.55;;
13801;SDS011;6972;51.518;6.918;2022-10-31T06:19:14;15.48;;;9.98;;
13801;SDS011;6972;51.518;6.918;2022-10-31T06:21:40;22.30;;;10.40;;
13801;SDS011;6972;51.518;6.918;2022-10-31T06:24:06;20.15;;;9.85;;
13801;SDS011;6972;51.518;6.918;2022-10-31T06:26:31;19.60;;;10.98;;
13801;SDS011;6972;51.518;6.918;2022-10-31T06:28:57;21.40;;;10.80;;
13801;SDS011;6972;51.518;6.918;2022-10-31T06:31:23;21.30;;;10.75;;
13801;SDS011;6972;51.518;6.918;2022-10-31T06:33:49;21.55;;;10.82;;
13801;SDS011;6972;51.518;6.918;2022-10-31T06:36:15;23.15;;;11.02;;
13801;SDS011;6972;51.518;6.918;2022-10-31T06:38:41;24.83;;;10.90;;
13801;SDS011;6972;51.518;6.918;2022-10-31T06:41:07;21.08;;;10.80;;
13801;SDS011;6972;51.518;6.918;2022-10-31T06:43:33;17.70;;;10.23;;
13801;SDS011;6972;51.518;6.918;2022-10-31T06:46:03;19.27;;;10.30;;
13801;SDS011;6972;51.518;6.918;2022-10-31T06:48:30;20.80;;;10.32;;
13801;SDS011;6972;51.518;6.918;2022-10-31T06:50:59;19.38;;;10.18;;
13801;SDS011;6972;51.518;6.918;2022-10-31T06:53:26;20.92;;;10.80;;
13801;SDS011;6972;51.518;6.918;2022-10-31T06:55:54;20.67;;;11.45;;
13801;SDS011;6972;51.518;6.918;2022-10-31T06:58:20;18.10;;;11.02;;
13801;SDS011;6972;51.518;6.918;2022-10-31T07:00:46;24.17;;;11.35;;
13801;SDS011;6972;51.518;6.918;2022-10-31T07:03:12;22.75;;;11.02;;
13801;SDS011;6972;51.518;6.918;2022-10-31T07:05:39;20.08;;;10.85;;
13801;SDS011;6972;51.518;6.918;2022-10-31T07:08:05;27.15;;;11.77;;
13801;SDS011;6972;51.518;6.918;2022-10-31T07:10:34;19.42;;;10.95;;
13801;SDS011;6972;51.518;6.918;2022-10-31T07:13:02;18.98;;;10.85;;
13801;SDS011;6972;51.518;6.918;2022-10-31T07:15:30;27.90;;;12.23;;
13801;SDS011;6972;51.518;6.918;2022-10-31T07:18:06;27.25;;;12.27;;
13801;SDS011;6972;51.518;6.918;2022-10-31T07:20:33;23.02;;;12.23;;
13801;SDS011;6972;51.518;6.918;2022-10-31T07:22:58;22.55;;;12.00;;
13801;SDS011;6972;51.518;6.918;2022-10-31T07:25:25;23.73;;;12.40;;
13801;SDS011;6972;51.518;6.918;2022-10-31T07:27:51;26.85;;;12.13;;
13801;SDS011;6972;51.518;6.918;2022-10-31T07:30:17;27.52;;;12.50;;
13801;SDS011;6972;51.518;6.918;2022-10-31T07:32:47;26.67;;;12.20;;
13801;SDS011;6972;51.518;6.918;2022-10-31T07:35:14;23.23;;;12.57;;
13801;SDS011;6972;51.518;6.918;2022-10-31T07:37:44;27.48;;;12.45;;
13801;SDS011;6972;51.518;6.918;2022-10-31T07:40:11;28.08;;;13.02;;
13801;SDS011;6972;51.518;6.918;2022-10-31T07:42:37;27.65;;;13.10;;
13801;SDS011;6972;51.518;6.918;2022-10-31T07:45:05;30.23;;;13.85;;
13801;SDS011;6972;51.518;6.918;2022-10-31T07:47:41;37.95;;;13.80;;
13801;SDS011;6972;51.518;6.918;2022-10-31T07:50:08;26.58;;;14.23;;
13801;SDS011;6972;51.518;6.918;2022-10-31T07:52:35;30.00;;;15.15;;
13801;SDS011;6972;51.518;6.918;2022-10-31T07:55:02;26.02;;;14.25;;
13801;SDS011;6972;51.518;6.918;2022-10-31T07:57:28;27.55;;;15.55;;
13801;SDS011;6972;51.518;6.918;2022-10-31T07:59:54;27.50;;;14.52;;
13801;SDS011;6972;51.518;6.918;2022-10-31T08:02:20;38.70;;;16.40;;
13801;SDS011;6972;51.518;6.918;2022-10-31T08:04:45;26.42;;;14.35;;
13801;SDS011;6972;51.518;6.918;2022-10-31T08:07:11;29.98;;;15.27;;
13801;SDS011;6972;51.518;6.918;2022-10-31T08:09:37;30.73;;;16.88;;
13801;SDS011;6972;51.518;6.918;2022-10-31T08:12:03;32.47;;;16.15;;
13801;SDS011;6972;51.518;6.918;2022-10-31T08:14:29;36.35;;;16.55;;
13801;SDS011;6972;51.518;6.918;2022-10-31T08:16:55;34.85;;;16.65;;
13801;SDS011;6972;51.518;6.918;2022-10-31T08:19:21;32.33;;;16.33;;
13801;SDS011;6972;51.518;6.918;2022-10-31T08:21:51;39.13;;;17.17;;
13801;SDS011;6972;51.518;6.918;2022-10-31T08:24:17;38.33;;;17.52;;
13801;SDS011;6972;51.518;6.918;2022-10-31T08:26:43;40.53;;;18.02;;
13801;SDS011;6972;51.518;6.918;2022-10-31T08:29:09;36.25;;;18.05;;
13801;SDS011;6972;51.518;6.918;2022-10-31T08:31:35;39.55;;;17.60;;
13801;SDS011;6972;51.518;6.918;2022-10-31T08:34:01;50.05;;;18.92;;
13801;SDS011;6972;51.518;6.918;2022-10-31T08:36:28;47.88;;;19.63;;
13801;SDS011;6972;51.518;6.918;2022-10-31T08:38:53;33.95;;;19.88;;
13801;SDS011;6972;51.518;6.918;2022-10-31T08:41:20;40.10;;;19.05;;
13801;SDS011;6972;51.518;6.918;2022-10-31T08:43:45;41.13;;;17.38;;
13801;SDS011;6972;51.518;6.918;2022-10-31T08:46:11;36.33;;;18.15;;
13801;SDS011;6972;51.518;6.918;2022-10-31T08:48:37;34.72;;;16.63;;
13801;SDS011;6972;51.518;6.918;2022-10-31T08:51:04;32.45;;;16.95;;
13801;SDS011;6972;51.518;6.918;2022-10-31T08:53:30;34.03;;;16.80;;
13801;SDS011;6972;51.518;6.918;2022-10-31T08:55:56;32.25;;;17.23;;
13801;SDS011;6972;51.518;6.918;2022-10-31T08:58:22;37.80;;;17.05;;
13801;SDS011;6972;51.518;6.918;2022-10-31T09:00:50;33.67;;;17.42;;
13801;SDS011;6972;51.518;6.918;2022-10-31T09:03:21;37.33;;;17.92;;
13801;SDS011;6972;51.518;6.918;2022-10-31T09:05:54;38.60;;;17.92;;
13801;SDS011;6972;51.518;6.918;2022-10-31T09:08:21;33.45;;;16.90;;
13801;SDS011;6972;51.518;6.918;2022-10-31T09:10:46;39.33;;;18.52;;
13801;SDS011;6972;51.518;6.918;2022-10-31T09:13:14;38.45;;;18.60;;
13801;SDS011;6972;51.518;6.918;2022-10-31T09:15:45;38.28;;;17.45;;
13801;SDS011;6972;51.518;6.918;2022-10-31T09:18:12;30.33;;;15.60;;
13801;SDS011;6972;51.518;6.918;2022-10-31T09:20:39;35.88;;;17.75;;
13801;SDS011;6972;51.518;6.918;2022-10-31T09:23:13;43.92;;;18.00;;
13801;SDS011;6972;51.518;6.918;2022-10-31T09:25:41;32.40;;;17.35;;
13801;SDS011;6972;51.518;6.918;2022-10-31T09:28:08;31.60;;;17.30;;
13801;SDS011;6972;51.518;6.918;2022-10-31T09:30:35;34.22;;;17.45;;
13801;SDS011;6972;51.518;6.918;2022-10-31T09:33:03;44.63;;;18.13;;
13801;SDS011;6972;51.518;6.918;2022-10-31T09:35:36;39.15;;;17.35;;
13801;SDS011;6972;51.518;6.918;2022-10-31T09:38:03;48.03;;;18.60;;
13801;SDS011;6972;51.518;6.918;2022-10-31T09:43:14;36.13;;;17.23;;
13801;SDS011;6972;51.518;6.918;2022-10-31T09:51:20;32.78;;;16.75;;
13801;SDS011;6972;51.518;6.918;2022-10-31T09:54:00;37.95;;;18.00;;
13801;SDS011;6972;51.518;6.918;2022-10-31T09:56:41;39.17;;;16.80;;
13801;SDS011;6972;51.518;6.918;2022-10-31T09:59:12;31.75;;;16.75;;
13801;SDS011;6972;51.518;6.918;2022-10-31T10:04:28;40.15;;;16.40;;
13801;SDS011;6972;51.518;6.918;2022-10-31T10:07:23;29.88;;;15.00;;
13801;SDS011;6972;51.518;6.918;2022-10-31T10:09:51;30.58;;;15.02;;
13801;SDS011;6972;51.518;6.918;2022-10-31T10:15:24;31.42;;;14.27;;
13801;SDS011;6972;51.518;6.918;2022-10-31T10:20:31;35.72;;;15.05;;
13801;SDS011;6972;51.518;6.918;2022-10-31T10:26:19;35.28;;;15.98;;
13801;SDS011;6972;51.518;6.918;2022-10-31T10:28:51;36.85;;;14.73;;
13801;SDS011;6972;51.518;6.918;2022-10-31T10:31:24;36.13;;;18.30;;
13801;SDS011;6972;51.518;6.918;2022-10-31T10:36:38;34.25;;;17.30;;
13801;SDS011;6972;51.518;6.918;2022-10-31T10:39:32;35.47;;;18.20;;
13801;SDS011;6972;51.518;6.918;2022-10-31T10:42:00;35.38;;;17.38;;
13801;SDS011;6972;51.518;6.918;2022-10-31T10:44:50;37.03;;;17.77;;
13801;SDS011;6972;51.518;6.918;2022-10-31T10:47:56;34.88;;;17.40;;
13801;SDS011;6972;51.518;6.918;2022-10-31T10:50:36;31.00;;;15.82;;
13801;SDS011;6972;51.518;6.918;2022-10-31T10:56:36;30.45;;;16.30;;
13801;SDS011;6972;51.518;6.918;2022-10-31T10:59:18;41.13;;;18.05;;
13801;SDS011;6972;51.518;6.918;2022-10-31T11:01:46;33.65;;;15.95;;
13801;SDS011;6972;51.518;6.918;2022-10-31T11:04:21;35.00;;;17.67;;
13801;SDS011;6972;51.518;6.918;2022-10-31T11:09:27;36.63;;;17.67;;
13801;SDS011;6972;51.518;6.918;2022-10-31T11:11:53;29.38;;;14.60;;
13801;SDS011;6972;51.518;6.918;2022-10-31T11:14:20;39.78;;;17.17;;
13801;SDS011;6972;51.518;6.918;2022-10-31T11:16:49;30.15;;;15.38;;
13801;SDS011;6972;51.518;6.918;2022-10-31T11:19:21;35.17;;;16.90;;
13801;SDS011;6972;51.518;6.918;2022-10-31T11:21:49;28.77;;;14.00;;
13801;SDS011;6972;51.518;6.918;2022-10-31T11:24:16;26.92;;;14.18;;
13801;SDS011;6972;51.518;6.918;2022-10-31T11:26:44;39.78;;;16.98;;
13801;SDS011;6972;51.518;6.918;2022-10-31T11:31:47;34.35;;;16.50;;
13801;SDS011;6972;51.518;6.918;2022-10-31T11:34:26;34.72;;;16.10;;
13801;SDS011;6972;51.518;6.918;2022-10-31T11:39:43;31.05;;;16.13;;
13801;SDS011;6972;51.518;6.918;2022-10-31T11:42:10;36.80;;;15.57;;
13801;SDS011;6972;51.518;6.918;2022-10-31T11:44:37;33.88;;;16.15;;
13801;SDS011;6972;51.518;6.918;2022-10-31T11:47:12;35.53;;;16.08;;
13801;SDS011;6972;51.518;6.918;2022-10-31T11:49:41;30.33;;;14.73;;
13801;SDS011;6972;51.518;6.918;2022-10-31T11:52:42;24.15;;;14.40;;
13801;SDS011;6972;51.518;6.918;2022-10-31T12:02:50;30.25;;;14.80;;
13801;SDS011;6972;51.518;6.918;2022-10-31T12:05:21;35.38;;;15.40;;
13801;SDS011;6972;51.518;6.918;2022-10-31T12:07:51;35.78;;;16.08;;
13801;SDS011;6972;51.518;6.918;2022-10-31T12:10:17;29.80;;;15.18;;
13801;SDS011;6972;51.518;6.918;2022-10-31T12:15:33;35.63;;;14.68;;
13801;SDS011;6972;51.518;6.918;2022-10-31T12:31:51;25.10;;;13.10;;
13801;SDS011;6972;51.518;6.918;2022-10-31T12:59:04;31.25;;;12.38;;
13801;SDS011;6972;51.518;6.918;2022-10-31T13:01:41;22.15;;;11.07;;
13801;SDS011;6972;51.518;6.918;2022-10-31T13:04:17;25.30;;;11.35;;
13801;SDS011;6972;51.518;6.918;2022-10-31T13:06:48;25.55;;;11.57;;
13801;SDS011;6972;51.518;6.918;2022-10-31T13:09:27;24.27;;;10.00;;
13801;SDS011;6972;51.518;6.918;2022-10-31T13:12:01;26.85;;;10.65;;
13801;SDS011;6972;51.518;6.918;2022-10-31T13:14:33;18.48;;;9.70;;
13801;SDS011;6972;51.518;6.918;2022-10-31T13:17:01;22.17;;;9.43;;
13801;SDS011;6972;51.518;6.918;2022-10-31T13:24:50;18.48;;;9.40;;
13801;SDS011;6972;51.518;6.918;2022-10-31T13:27:30;19.40;;;9.13;;
13801;SDS011;6972;51.518;6.918;2022-10-31T13:30:23;21.88;;;10.50;;
13801;SDS011;6972;51.518;6.918;2022-10-31T13:45:56;19.40;;;8.73;;
13801;SDS011;6972;51.518;6.918;2022-10-31T13:51:06;28.30;;;9.98;;
13801;SDS011;6972;51.518;6.918;2022-10-31T13:58:42;23.55;;;8.88;;
13801;SDS011;6972;51.518;6.918;2022-10-31T14:01:21;21.48;;;8.73;;
13801;SDS011;6972;51.518;6.918;2022-10-31T14:03:55;17.42;;;8.38;;
13801;SDS011;6972;51.518;6.918;2022-10-31T14:06:49;34.42;;;9.63;;
13801;SDS011;6972;51.518;6.918;2022-10-31T14:12:00;24.25;;;8.73;;
13801;SDS011;6972;51.518;6.918;2022-10-31T14:14:30;19.33;;;8.13;;
13801;SDS011;6972;51.518;6.918;2022-10-31T14:17:01;25.25;;;9.82;;
13801;SDS011;6972;51.518;6.918;2022-10-31T14:19:27;18.85;;;9.43;;
13801;SDS011;6972;51.518;6.918;2022-10-31T14:21:53;19.75;;;8.82;;
13801;SDS011;6972;51.518;6.918;2022-10-31T14:27:00;26.77;;;8.63;;
13801;SDS011;6972;51.518;6.918;2022-10-31T14:29:27;20.27;;;8.05;;
13801;SDS011;6972;51.518;6.918;2022-10-31T14:36:59;15.38;;;7.78;;
13801;SDS011;6972;51.518;6.918;2022-10-31T14:48:03;17.20;;;7.57;;
13801;SDS011;6972;51.518;6.918;2022-10-31T14:50:42;20.63;;;7.93;;
13801;SDS011;6972;51.518;6.918;2022-10-31T14:55:58;22.25;;;7.88;;
13801;SDS011;6972;51.518;6.918;2022-10-31T14:58:43;17.17;;;6.70;;
13801;SDS011;6972;51.518;6.918;2022-10-31T15:03:46;17.00;;;7.15;;
13801;SDS011;6972;51.518;6.918;2022-10-31T15:06:13;17.13;;;6.60;;
13801;SDS011;6972;51.518;6.918;2022-10-31T15:08:45;24.42;;;7.30;;
13801;SDS011;6972;51.518;6.918;2022-10-31T15:11:22;15.50;;;6.88;;
13801;SDS011;6972;51.518;6.918;2022-10-31T15:13:56;20.58;;;6.25;;
13801;SDS011;6972;51.518;6.918;2022-10-31T15:16:23;14.45;;;6.18;;
13801;SDS011;6972;51.518;6.918;2022-10-31T15:19:02;20.98;;;6.40;;
13801;SDS011;6972;51.518;6.918;2022-10-31T15:21:30;14.00;;;5.72;;
13801;SDS011;6972;51.518;6.918;2022-10-31T15:23:57;21.08;;;5.80;;
13801;SDS011;6972;51.518;6.918;2022-10-31T15:26:27;17.30;;;5.63;;
13801;SDS011;6972;51.518;6.918;2022-10-31T15:29:04;17.35;;;5.53;;
13801;SDS011;6972;51.518;6.918;2022-10-31T15:31:39;14.43;;;5.40;;
13801;SDS011;6972;51.518;6.918;2022-10-31T15:34:21;14.15;;;5.82;;
13801;SDS011;6972;51.518;6.918;2022-10-31T15:36:54;16.85;;;6.65;;
13801;SDS011;6972;51.518;6.918;2022-10-31T15:39:20;18.60;;;6.38;;
13801;SDS011;6972;51.518;6.918;2022-10-31T15:41:49;14.63;;;6.68;;
13801;SDS011;6972;51.518;6.918;2022-10-31T15:44:31;18.50;;;6.85;;
13801;SDS011;6972;51.518;6.918;2022-10-31T15:47:01;14.32;;;6.55;;
13801;SDS011;6972;51.518;6.918;2022-10-31T15:49:38;16.98;;;6.45;;
13801;SDS011;6972;51.518;6.918;2022-10-31T15:52:11;18.00;;;5.60;;
13801;SDS011;6972;51.518;6.918;2022-10-31T15:55:15;15.25;;;5.72;;
13801;SDS011;6972;51.518;6.918;2022-10-31T15:57:49;16.88;;;6.38;;
13801;SDS011;6972;51.518;6.918;2022-10-31T16:05:54;11.60;;;4.88;;
13801;SDS011;6972;51.518;6.918;2022-10-31T16:10:51;15.77;;;6.05;;
13801;SDS011;6972;51.518;6.918;2022-10-31T16:13:17;17.45;;;5.13;;
13801;SDS011;6972;51.518;6.918;2022-10-31T16:15:54;16.42;;;5.22;;
13801;SDS011;6972;51.518;6.918;2022-10-31T16:18:22;26.15;;;5.75;;
13801;SDS011;6972;51.518;6.918;2022-10-31T16:20:50;14.65;;;5.40;;
13801;SDS011;6972;51.518;6.918;2022-10-31T16:23:18;14.85;;;5.13;;
13801;SDS011;6972;51.518;6.918;2022-10-31T16:25:45;24.00;;;5.55;;
13801;SDS011;6972;51.518;6.918;2022-10-31T16:28:16;14.48;;;5.45;;
13801;SDS011;6972;51.518;6.918;2022-10-31T16:30:47;15.82;;;5.75;;
13801;SDS011;6972;51.518;6.918;2022-10-31T16:36:01;19.90;;;6.15;;
13801;SDS011;6972;51.518;6.918;2022-10-31T16:38:45;14.98;;;6.93;;
13801;SDS011;6972;51.518;6.918;2022-10-31T16:41:11;24.10;;;7.13;;
13801;SDS011;6972;51.518;6.918;2022-10-31T16:43:37;24.52;;;6.88;;
13801;SDS011;6972;51.518;6.918;2022-10-31T16:46:02;16.13;;;6.68;;
13801;SDS011;6972;51.518;6.918;2022-10-31T16:48:28;13.00;;;7.30;;
13801;SDS011;6972;51.518;6.918;2022-10-31T16:50:54;15.32;;;7.07;;
13801;SDS011;6972;51.518;6.918;2022-10-31T16:53:20;17.77;;;7.70;;
13801;SDS011;6972;51.518;6.918;2022-10-31T16:56:04;21.83;;;8.38;;
13801;SDS011;6972;51.518;6.918;2022-10-31T16:58:37;24.85;;;8.10;;
13801;SDS011;6972;51.518;6.918;2022-10-31T17:01:04;22.52;;;8.32;;
13801;SDS011;6972;51.518;6.918;2022-10-31T17:03:32;25.05;;;7.65;;
13801;SDS011;6972;51.518;6.918;2022-10-31T17:05:58;21.60;;;8.10;;
13801;SDS011;6972;51.518;6.918;2022-10-31T17:08:24;23.67;;;7.55;;
13801;SDS011;6972;51.518;6.918;2022-10-31T17:10:50;21.50;;;7.55;;
13801;SDS011;6972;51.518;6.918;2022-10-31T17:13:19;20.77;;;8.23;;
13801;SDS011;6972;51.518;6.918;2022-10-31T17:15:47;22.83;;;7.22;;
13801;SDS011;6972;51.518;6.918;2022-10-31T17:18:16;22.05;;;7.45;;
13801;SDS011;6972;51.518;6.918;2022-10-31T17:20:42;23.30;;;8.05;;
13801;SDS011;6972;51.518;6.918;2022-10-31T17:23:09;25.23;;;7.45;;
13801;SDS011;6972;51.518;6.918;2022-10-31T17:25:36;18.40;;;7.38;;
13801;SDS011;6972;51.518;6.918;2022-10-31T17:28:02;22.10;;;7.78;;
13801;SDS011;6972;51.518;6.918;2022-10-31T17:30:28;27.63;;;7.88;;
13801;SDS011;6972;51.518;6.918;2022-10-31T17:32:55;16.25;;;7.78;;
13801;SDS011;6972;51.518;6.918;2022-10-31T17:35:21;23.52;;;8.27;;
13801;SDS011;6972;51.518;6.918;2022-10-31T17:37:47;20.88;;;8.48;;
13801;SDS011;6972;51.518;6.918;2022-10-31T17:40:15;26.63;;;8.07;;
13801;SDS011;6972;51.518;6.918;2022-10-31T17:42:47;24.25;;;7.53;;
13801;SDS011;6972;51.518;6.918;2022-10-31T17:45:14;18.38;;;8.02;;
13801;SDS011;6972;51.518;6.918;2022-10-31T17:47:40;24.10;;;7.05;;
13801;SDS011;6972;51.518;6.918;2022-10-31T17:50:06;24.15;;;7.82;;
13801;SDS011;6972;51.518;6.918;2022-10-31T17:52:32;22.98;;;7.97;;
13801;SDS011;6972;51.518;6.918;2022-10-31T17:54:58;25.30;;;7.65;;